Aeroporto :
LOGIN :

Iscrizione | Disclaimer

   EN    FR    IT 

 










Sommario :    VFR   VFR Marginale   IFR   IFR Intensivo   IFR Molto Intensivo
Visibilità : 
Base nubi : 
>= 8 km
>= 3000ft
5 / 8 km
1000 / 3000 ft
1500m / 5 km
500 / 1000 ft
800 / 1500m
200 / 500 ft
< 800m
< 200 ft
Simboli :   Temporali  Nebbia  Neve Forte  Precipitazioni Forti  Vento > 20 kt
SIGMETs :   Varie  Temporali  Ghiacco  Turbolenza  Onda orograficha  Ceneri Vulcaniche






- Altitudine del aeroporto : 84 ft


LFBC - Cazaux

ULTIMO METAR :
  • 101900Z AUTO 33006KT CAVOK 23/21 Q1012

METARs OBSOLETI :
  • 101830Z AUTO 32005KT 9999 ///TCU 23/21 Q1012
  • 101800Z AUTO 34004KT 300V020 9999 ///TCU 23/20 Q1012
  • 101730Z AUTO 28008KT 250V310 9999 ///CB 24/20 Q1012
  • 101700Z AUTO 29007KT 9999 ///TCU 25/19 Q1012
  • 101630Z AUTO 30005KT 260V330 CAVOK 26/19 Q1012

TAF TAF LFBC
Valido dal 10 a 15 ore il 11 a 15 ore UTC


101400Z 1015/1115 30010KT CAVOK
PROB30 1015/1017 VRB15G25KT 4000 TSRA BKN070CB
BECMG 1017/1019 BKN008
BECMG 1019/1021 VRB02KT
BECMG 1108/1110 SCT015
TEMPO 1110/1112 VRB15G25KT 4000 TSRA BKN060CB



MetMap, La meteo Aeronautica in un colpo d'occhio ! - Copyright ORBIFLY Dicembre 2007 - Disclaimer

ORBIFLY MET'MAP TEAM :

Programmazione e sviluppo : Alexandra Zaïnal
Concezione : Baudouin d'Aumeries
Aiuto per la programmazione : Marc-Olivier Méhu
Supporto tecnico e logistico : Manuel Goepfert
Aiuto per la traduzione : Arnaldo La Scala

Contatto : metmap@orbifly.com




FONTI E CREDITI :

   NOAA